HAK weather

Haikou Meilan International Airport
Haikou, Hainan Province, China

Public forecast

Using degrees Celsius for public forecast. Weather courtesy of forecast.io.

Current aviation weather report (METAR) for Haikou Meilan International Airport

Retrieved 2019/11/21 07:00 UTC (4 minutes ago):

ZJHK 210700Z 03005MPS 350V060 9999 SCT033 26/16 Q1016 NOSIG

Aviation forecast (TAF) for Haikou Meilan International Airport

Retrieved 2019/11/21 06:03 UTC (1 hour ago):

TAF ZJHK 210300Z 2106/2206 04004MPS 7000 SCT020 TX27/2107Z TN19/2121Z